Time;durP1;ratioP1;P1;durP2;ratioP2;P2;SDS_P1;SDS_P2;PMS_P1;PMS_P2;Temp;Humidity;BMP_temperature;BMP_pressure;BME280_temperature;BME280_humidity;BME280_pressure;Samples;Min_cycle;Max_cycle;Signal;HPM_P1;HPM_P2
2023/01/01 00:01:26;;;;;;;12.93;5.03;;;15.80;99.90;;;;;;4999726;28;20029;-75
2023/01/01 00:03:56;;;;;;;9.40;3.30;;;15.80;99.90;;;;;;5003799;28;20516;-76
2023/01/01 00:06:21;;;;;;;14.88;3.75;;;15.70;99.90;;;;;;5008315;28;20129;-75
2023/01/01 00:08:47;;;;;;;14.18;4.20;;;15.70;99.90;;;;;;5009269;28;20034;-75
2023/01/01 00:11:13;;;;;;;10.85;3.20;;;15.70;99.90;;;;;;5007791;28;20023;-75
2023/01/01 00:13:40;;;;;;;15.25;4.20;;;15.60;99.90;;;;;;5008502;28;20026;-75
2023/01/01 00:16:15;;;;;;;10.98;3.88;;;15.60;99.90;;;;;;5004562;28;20033;-75
2023/01/01 00:18:40;;;;;;;11.43;3.70;;;15.60;99.90;;;;;;5003249;28;20056;-76
2023/01/01 00:21:12;;;;;;;11.32;2.88;;;15.60;99.90;;;;;;5002771;28;20320;-75
2023/01/01 00:23:39;;;;;;;9.63;3.17;;;15.60;99.90;;;;;;5003389;28;20026;-76
2023/01/01 00:26:13;;;;;;;7.00;2.97;;;15.60;99.90;;;;;;4999420;28;20033;-75
2023/01/01 00:28:39;;;;;;;19.55;3.15;;;15.60;99.90;;;;;;5002034;28;20564;-75
2023/01/01 00:31:10;;;;;;;6.80;2.55;;;15.60;99.90;;;;;;5008065;28;20029;-75
2023/01/01 00:33:35;;;;;;;14.10;3.97;;;15.60;99.90;;;;;;5007689;28;20054;-75
2023/01/01 00:36:06;;;;;;;9.65;2.80;;;15.60;99.90;;;;;;5014354;28;20056;-75
2023/01/01 00:38:32;;;;;;;12.65;2.72;;;15.60;99.90;;;;;;5002122;28;20038;-76
2023/01/01 00:40:58;;;;;;;10.07;2.53;;;15.60;99.90;;;;;;5007596;28;20036;-76
2023/01/01 00:43:23;;;;;;;7.32;2.60;;;15.50;99.90;;;;;;5000786;28;20034;-76
2023/01/01 00:45:52;;;;;;;8.98;2.42;;;15.50;99.90;;;;;;5004637;28;20042;-75
2023/01/01 00:48:18;;;;;;;9.13;2.78;;;15.50;99.90;;;;;;4997761;28;20570;-75
2023/01/01 00:50:44;;;;;;;7.30;2.38;;;15.50;99.90;;;;;;5004905;28;20075;-76
2023/01/01 00:53:10;;;;;;;7.63;2.75;;;15.50;99.90;;;;;;5009158;28;20094;-76
2023/01/01 00:55:37;;;;;;;13.63;2.80;;;15.60;99.90;;;;;;5002710;28;20030;-75
2023/01/01 00:58:03;;;;;;;6.55;2.83;;;15.50;99.90;;;;;;5007836;28;20465;-75
2023/01/01 01:00:29;;;;;;;6.18;3.08;;;15.50;99.90;;;;;;5008719;28;20043;-75
2023/01/01 01:02:54;;;;;;;7.40;2.58;;;15.60;99.90;;;;;;5002389;28;20091;-76
2023/01/01 01:05:20;;;;;;;6.03;3.00;;;15.50;99.90;;;;;;5005239;28;20026;-75
2023/01/01 01:07:45;;;;;;;10.02;3.20;;;15.50;99.90;;;;;;5009556;28;20038;-75
2023/01/01 01:10:11;;;;;;;8.82;2.60;;;15.60;99.90;;;;;;5004343;28;20030;-75
2023/01/01 01:12:37;;;;;;;5.15;2.80;;;15.50;99.90;;;;;;5000038;28;20081;-75
2023/01/01 01:15:03;;;;;;;9.15;2.55;;;15.50;99.90;;;;;;5000969;28;20478;-75
2023/01/01 01:17:29;;;;;;;7.47;3.20;;;15.50;99.90;;;;;;5003466;28;20037;-75
2023/01/01 01:19:55;;;;;;;7.50;2.53;;;15.50;99.90;;;;;;5004176;28;20509;-76
2023/01/01 01:22:20;;;;;;;8.20;2.78;;;15.60;99.90;;;;;;5002910;28;20058;-75
2023/01/01 01:24:46;;;;;;;7.60;2.88;;;15.60;99.90;;;;;;5003054;28;20169;-76
2023/01/01 01:27:11;;;;;;;8.57;2.90;;;15.60;99.90;;;;;;5007278;28;20109;-76
2023/01/01 01:29:37;;;;;;;10.30;2.47;;;15.60;99.90;;;;;;5003494;28;20406;-76
2023/01/01 01:32:03;;;;;;;12.60;3.00;;;15.60;99.90;;;;;;5006205;28;20033;-76
2023/01/01 01:34:29;;;;;;;7.65;3.25;;;15.50;99.90;;;;;;5003217;28;20030;-75
2023/01/01 01:36:55;;;;;;;8.65;2.67;;;15.50;99.90;;;;;;5010335;28;20371;-75
2023/01/01 01:39:21;;;;;;;14.63;2.75;;;15.60;99.90;;;;;;5003651;28;20090;-75
2023/01/01 01:41:46;;;;;;;11.10;2.78;;;15.50;99.90;;;;;;5005768;28;20038;-75
2023/01/01 01:44:43;;;;;;;5.63;2.45;;;15.50;99.90;;;;;;4984794;28;20619;-76
2023/01/01 01:47:14;;;;;;;4.18;2.17;;;15.50;99.90;;;;;;5002494;28;20085;-75
2023/01/01 01:49:42;;;;;;;8.60;2.08;;;15.50;99.90;;;;;;5006576;28;20022;-75
2023/01/01 01:52:08;;;;;;;9.23;2.67;;;15.40;99.90;;;;;;5004140;28;20057;-75
2023/01/01 01:54:34;;;;;;;8.68;2.50;;;15.40;99.90;;;;;;5010425;28;20037;-75
2023/01/01 01:57:03;;;;;;;7.10;2.38;;;15.40;99.90;;;;;;5004921;28;20544;-75
2023/01/01 01:59:37;;;;;;;6.78;2.00;;;15.40;99.90;;;;;;4999219;28;20029;-75
2023/01/01 02:02:04;;;;;;;11.07;2.75;;;15.40;99.90;;;;;;5005498;28;20563;-75
2023/01/01 02:04:30;;;;;;;11.98;2.50;;;15.40;99.90;;;;;;5005811;28;21891;-75
2023/01/01 02:06:56;;;;;;;10.27;2.35;;;15.40;99.90;;;;;;5025237;28;20038;-75
2023/01/01 02:09:22;;;;;;;10.60;2.70;;;15.40;99.90;;;;;;5005465;28;20018;-74
2023/01/01 02:11:48;;;;;;;7.10;2.50;;;15.40;99.90;;;;;;4999355;28;20054;-74
2023/01/01 02:14:13;;;;;;;6.68;2.63;;;15.40;99.90;;;;;;5001188;28;20465;-73
2023/01/01 02:16:48;;;;;;;9.82;2.50;;;15.40;99.90;;;;;;5001609;28;20026;-75
2023/01/01 02:19:42;;;;;;;8.38;2.20;;;15.40;99.90;;;;;;4990941;28;20269;-75
2023/01/01 02:22:31;;;;;;;6.65;2.75;;;15.40;99.90;;;;;;5005290;28;20533;-75
2023/01/01 02:25:27;;;;;;;8.93;2.40;;;15.40;99.90;;;;;;5000291;28;20057;-75
2023/01/01 02:28:11;;;;;;;11.15;2.63;;;15.40;99.90;;;;;;5004882;28;20034;-76
2023/01/01 02:30:40;;;;;;;5.70;1.80;;;15.30;99.90;;;;;;5014419;28;20488;-75
2023/01/01 02:33:15;;;;;;;10.43;2.20;;;15.40;99.90;;;;;;4988963;28;20593;-75
2023/01/01 02:35:47;;;;;;;8.18;2.28;;;15.30;99.90;;;;;;5010613;28;20036;-73
2023/01/01 02:38:27;;;;;;;7.55;1.90;;;15.30;99.90;;;;;;5006080;28;20508;-74
2023/01/01 02:41:34;;;;;;;6.07;2.15;;;15.30;99.90;;;;;;5010829;28;20481;-73
2023/01/01 02:44:03;;;;;;;10.05;2.30;;;15.40;99.90;;;;;;5010147;28;20129;-74
2023/01/01 02:46:33;;;;;;;8.77;2.40;;;15.30;99.90;;;;;;4998823;28;20018;-73
2023/01/01 02:49:00;;;;;;;8.10;2.13;;;15.30;99.90;;;;;;4993131;28;20026;-73
2023/01/01 02:51:50;;;;;;;5.38;2.05;;;15.20;99.90;;;;;;5002760;28;20027;-73
2023/01/01 02:54:31;;;;;;;7.60;2.38;;;15.20;99.90;;;;;;4996669;28;20057;-73
2023/01/01 02:56:57;;;;;;;7.20;2.40;;;15.20;99.90;;;;;;5003615;28;20026;-74
2023/01/01 03:02:32;;;;;;;6.90;2.00;;;15.30;99.90;;;;;;5012270;28;20532;-73
2023/01/01 03:05:16;;;;;;;10.75;1.83;;;15.30;99.90;;;;;;5008477;28;20030;-73
2023/01/01 03:08:09;;;;;;;12.90;1.95;;;15.20;99.90;;;;;;5012646;28;20037;-74
2023/01/01 03:10:54;;;;;;;8.52;2.42;;;15.20;99.90;;;;;;5011065;28;20105;-73
2023/01/01 03:13:32;;;;;;;3.97;1.95;;;15.20;99.90;;;;;;5003351;28;20022;-74
2023/01/01 03:15:59;;;;;;;4.32;1.90;;;15.20;99.90;;;;;;5002887;28;20029;-74
2023/01/01 03:18:49;;;;;;;4.20;1.80;;;15.20;99.90;;;;;;5019500;28;20033;-74
2023/01/01 03:21:21;;;;;;;6.40;1.85;;;15.10;99.90;;;;;;4999082;28;20050;-73
2023/01/01 03:23:53;;;;;;;5.72;1.80;;;15.10;99.90;;;;;;4988858;28;20032;-75
2023/01/01 03:26:22;;;;;;;8.70;1.83;;;15.10;99.90;;;;;;5002166;28;20374;-74
2023/01/01 03:28:53;;;;;;;8.88;2.40;;;15.10;99.90;;;;;;5005672;28;20098;-73
2023/01/01 03:31:21;;;;;;;9.57;1.92;;;15.00;99.90;;;;;;5009640;28;20021;-74
2023/01/01 03:33:54;;;;;;;5.25;1.85;;;15.00;99.90;;;;;;5006720;28;20057;-74
2023/01/01 03:36:34;;;;;;;6.72;2.22;;;15.10;99.90;;;;;;5022668;28;20026;-73
2023/01/01 03:39:11;;;;;;;5.82;2.20;;;15.10;99.90;;;;;;4988210;28;20026;-74
2023/01/01 03:41:45;;;;;;;6.20;2.08;;;15.10;99.90;;;;;;5003582;28;20123;-74
2023/01/01 03:44:29;;;;;;;7.18;2.28;;;15.00;99.90;;;;;;5006572;28;20449;-74
2023/01/01 03:46:55;;;;;;;9.52;2.17;;;15.00;99.90;;;;;;5001542;28;20490;-74
2023/01/01 03:49:21;;;;;;;5.97;2.38;;;15.00;99.90;;;;;;5005152;28;20014;-73
2023/01/01 03:51:56;;;;;;;7.50;1.90;;;15.00;99.90;;;;;;5000735;28;20100;-73
2023/01/01 03:54:27;;;;;;;6.07;2.17;;;15.00;99.90;;;;;;5004846;28;20466;-73
2023/01/01 03:57:23;;;;;;;5.83;2.13;;;15.00;99.90;;;;;;5007732;28;20065;-73
2023/01/01 04:00:10;;;;;;;6.47;1.67;;;15.00;99.90;;;;;;4979836;28;20088;-73
2023/01/01 04:02:44;;;;;;;3.58;1.92;;;15.00;99.90;;;;;;5004552;28;20092;-73
2023/01/01 04:05:11;;;;;;;7.95;1.85;;;15.00;99.90;;;;;;5005375;28;20022;-74
2023/01/01 04:07:38;;;;;;;6.97;2.05;;;15.10;99.90;;;;;;5004547;28;20496;-74
2023/01/01 04:10:15;;;;;;;9.52;2.40;;;15.10;99.90;;;;;;5010679;28;20061;-73
2023/01/01 04:12:54;;;;;;;4.13;2.20;;;15.00;99.90;;;;;;5015489;28;20029;-73
2023/01/01 04:15:24;;;;;;;7.13;1.65;;;15.00;99.90;;;;;;5004436;28;20536;-73
2023/01/01 04:17:50;;;;;;;6.70;2.22;;;14.90;99.90;;;;;;4997548;28;20469;-73
2023/01/01 04:20:17;;;;;;;5.18;2.20;;;15.00;99.90;;;;;;5016082;28;20482;-73
2023/01/01 04:22:43;;;;;;;6.53;2.20;;;15.00;99.90;;;;;;4999408;28;20034;-74
2023/01/01 04:25:10;;;;;;;6.40;1.58;;;15.00;99.90;;;;;;5003763;28;20030;-74
2023/01/01 04:27:37;;;;;;;6.22;2.22;;;15.00;99.90;;;;;;4982523;28;20066;-73
2023/01/01 04:30:05;;;;;;;5.53;1.98;;;15.00;99.90;;;;;;5003978;28;20022;-74
2023/01/01 04:32:30;;;;;;;7.20;1.70;;;15.00;99.90;;;;;;5010927;28;20032;-73
2023/01/01 04:34:56;;;;;;;6.15;1.77;;;15.00;99.90;;;;;;5006454;28;20030;-73
2023/01/01 04:37:22;;;;;;;7.80;2.60;;;15.00;99.90;;;;;;5003113;28;20470;-74
2023/01/01 04:39:47;;;;;;;5.20;2.20;;;15.00;99.90;;;;;;5005383;28;20461;-74
2023/01/01 04:42:13;;;;;;;6.00;2.03;;;15.00;99.90;;;;;;5004618;28;20064;-73
2023/01/01 04:44:41;;;;;;;5.05;2.03;;;15.00;99.90;;;;;;5000607;28;20066;-74
2023/01/01 04:47:07;;;;;;;6.53;2.35;;;15.00;99.90;;;;;;5002091;28;20030;-74
2023/01/01 04:49:33;;;;;;;4.30;1.95;;;15.00;99.90;;;;;;5003643;28;20347;-73
2023/01/01 04:51:58;;;;;;;5.47;1.85;;;15.00;99.90;;;;;;5003287;28;20531;-73
2023/01/01 04:54:24;;;;;;;6.82;2.03;;;15.00;99.90;;;;;;5009823;28;20120;-73
2023/01/01 04:56:50;;;;;;;7.35;2.17;;;15.00;99.90;;;;;;5004663;28;20367;-73
2023/01/01 04:59:15;;;;;;;6.45;2.20;;;15.00;99.90;;;;;;5010839;28;20104;-74
2023/01/01 05:01:41;;;;;;;7.80;2.10;;;15.00;99.90;;;;;;4991659;28;20116;-73
2023/01/01 05:04:06;;;;;;;8.00;2.15;;;15.00;99.90;;;;;;5000854;28;20023;-74
2023/01/01 05:06:32;;;;;;;6.97;2.38;;;15.00;99.90;;;;;;4997028;28;20022;-74
2023/01/01 05:09:00;;;;;;;6.53;2.38;;;15.00;99.90;;;;;;4997373;28;20139;-74
2023/01/01 05:11:29;;;;;;;7.35;2.22;;;14.90;99.90;;;;;;5000598;28;20048;-74
2023/01/01 05:13:58;;;;;;;5.47;2.25;;;14.90;99.90;;;;;;5003673;28;20104;-74
2023/01/01 05:16:26;;;;;;;6.25;1.95;;;14.90;99.90;;;;;;5018234;28;20081;-73
2023/01/01 05:18:52;;;;;;;5.40;1.80;;;14.90;99.90;;;;;;5012353;28;20112;-74
2023/01/01 05:21:24;;;;;;;6.93;2.10;;;14.80;99.90;;;;;;4999723;28;20137;-74
2023/01/01 05:23:54;;;;;;;3.15;2.15;;;14.80;99.90;;;;;;5004013;28;20034;-74
2023/01/01 05:26:22;;;;;;;6.50;1.88;;;14.80;99.90;;;;;;4986047;28;20359;-74
2023/01/01 05:28:49;;;;;;;5.22;2.15;;;14.80;99.90;;;;;;5003946;28;20030;-74
2023/01/01 05:31:17;;;;;;;9.30;1.80;;;14.80;99.90;;;;;;5006047;28;20056;-74
2023/01/01 05:33:43;;;;;;;6.38;1.90;;;14.80;99.90;;;;;;5009755;28;20400;-74
2023/01/01 05:36:14;;;;;;;5.15;2.38;;;14.70;99.90;;;;;;5003664;28;20031;-74
2023/01/01 05:38:40;;;;;;;4.88;2.00;;;14.70;99.90;;;;;;5008552;28;20077;-74
2023/01/01 05:41:07;;;;;;;4.72;1.70;;;14.80;99.90;;;;;;5006947;28;20041;-73
2023/01/01 05:43:33;;;;;;;8.73;2.30;;;14.80;99.90;;;;;;4986308;28;20436;-73
2023/01/01 05:46:03;;;;;;;6.82;2.78;;;14.80;99.90;;;;;;5003463;28;20031;-73
2023/01/01 05:48:29;;;;;;;5.43;2.50;;;14.80;99.90;;;;;;4999509;28;20022;-73
2023/01/01 05:51:01;;;;;;;8.30;2.28;;;14.80;99.90;;;;;;5012471;28;20065;-74
2023/01/01 05:53:28;;;;;;;7.35;2.58;;;14.80;99.90;;;;;;4989675;28;20543;-73
2023/01/01 05:55:54;;;;;;;8.57;2.47;;;14.80;99.90;;;;;;5022514;28;20076;-73
2023/01/01 05:58:20;;;;;;;7.95;2.20;;;14.80;99.90;;;;;;5006515;28;20026;-73
2023/01/01 06:00:45;;;;;;;8.82;2.40;;;14.80;99.90;;;;;;5006474;28;20049;-73
2023/01/01 06:03:11;;;;;;;8.88;2.70;;;14.80;99.90;;;;;;5009861;28;20037;-73
2023/01/01 06:05:36;;;;;;;6.95;2.17;;;14.80;99.90;;;;;;5006226;28;20469;-73
2023/01/01 06:08:02;;;;;;;7.22;2.20;;;14.80;99.90;;;;;;5007912;28;20037;-73
2023/01/01 06:10:28;;;;;;;7.20;2.33;;;14.80;99.90;;;;;;5029238;28;20069;-73
2023/01/01 06:12:57;;;;;;;5.57;2.47;;;14.80;99.90;;;;;;5001645;28;20044;-73
2023/01/01 06:15:23;;;;;;;6.45;2.65;;;14.80;99.90;;;;;;4991303;28;20041;-73
2023/01/01 06:17:49;;;;;;;6.60;2.63;;;14.80;99.90;;;;;;5007404;28;20081;-73
2023/01/01 06:20:15;;;;;;;7.47;2.65;;;14.80;99.90;;;;;;5012595;28;20018;-73
2023/01/01 06:22:40;;;;;;;9.82;2.67;;;14.80;99.90;;;;;;5003416;28;20041;-74
2023/01/01 06:25:07;;;;;;;6.95;2.80;;;14.80;99.90;;;;;;5008847;28;20590;-73
2023/01/01 06:27:34;;;;;;;9.90;2.60;;;14.80;99.90;;;;;;5005664;28;20026;-73
2023/01/01 06:30:00;;;;;;;8.85;2.83;;;14.80;99.90;;;;;;5004107;28;20053;-73
2023/01/01 06:32:26;;;;;;;8.13;2.13;;;14.80;99.90;;;;;;5006522;28;20057;-73
2023/01/01 06:34:51;;;;;;;8.77;2.65;;;14.80;99.90;;;;;;5005366;28;20029;-73
2023/01/01 06:37:17;;;;;;;9.65;2.47;;;14.80;99.90;;;;;;5008839;28;20034;-73
2023/01/01 06:39:42;;;;;;;8.93;2.60;;;14.80;99.90;;;;;;5005858;28;20026;-73
2023/01/01 06:42:08;;;;;;;8.82;2.50;;;14.70;99.90;;;;;;5016739;28;20045;-72
2023/01/01 06:44:34;;;;;;;8.27;2.67;;;14.80;99.90;;;;;;5001446;28;20030;-73
2023/01/01 06:46:59;;;;;;;8.43;2.95;;;14.70;99.90;;;;;;5006772;28;20117;-73
2023/01/01 06:49:25;;;;;;;15.65;3.05;;;14.70;99.90;;;;;;5006799;28;20478;-72
2023/01/01 06:51:50;;;;;;;11.10;2.70;;;14.60;99.90;;;;;;4993071;28;20029;-73
2023/01/01 06:54:16;;;;;;;9.35;3.33;;;14.60;99.90;;;;;;5008696;28;20096;-72
2023/01/01 06:56:41;;;;;;;10.02;2.75;;;14.70;99.90;;;;;;5020702;28;20022;-72
2023/01/01 06:59:07;;;;;;;3.90;2.88;;;14.60;99.90;;;;;;5010769;28;20082;-73
2023/01/01 07:01:35;;;;;;;7.57;2.20;;;14.60;99.90;;;;;;5012180;28;20092;-72
2023/01/01 07:04:07;;;;;;;6.03;2.83;;;14.60;99.90;;;;;;5011021;28;20025;-73
2023/01/01 07:06:34;;;;;;;7.30;3.65;;;14.50;99.90;;;;;;5009785;28;20029;-72
2023/01/01 07:09:00;;;;;;;11.98;3.50;;;14.50;99.90;;;;;;4988719;28;20053;-72
2023/01/01 07:11:26;;;;;;;8.15;2.80;;;14.50;99.90;;;;;;5002902;28;20023;-73
2023/01/01 07:13:53;;;;;;;8.10;3.13;;;14.40;99.90;;;;;;5004931;28;20477;-72
2023/01/01 07:16:19;;;;;;;7.85;2.90;;;14.30;99.90;;;;;;5000827;28;20116;-73
2023/01/01 07:18:47;;;;;;;6.57;2.95;;;14.30;99.90;;;;;;5004244;28;20072;-73
2023/01/01 07:21:53;;;;;;;8.95;3.08;;;14.30;99.90;;;;;;5005774;28;20038;-72
2023/01/01 07:24:19;;;;;;;6.00;3.00;;;14.20;99.90;;;;;;5000444;28;20041;-73
2023/01/01 07:26:45;;;;;;;11.60;3.17;;;14.20;99.90;;;;;;5007626;28;20470;-73
2023/01/01 07:29:11;;;;;;;9.52;3.03;;;14.20;99.90;;;;;;4999818;28;20029;-73
2023/01/01 07:31:39;;;;;;;8.50;3.05;;;14.20;99.90;;;;;;5006408;28;20474;-73
2023/01/01 07:34:06;;;;;;;8.98;3.70;;;14.20;99.90;;;;;;5003147;28;20077;-72
2023/01/01 07:36:32;;;;;;;12.15;3.47;;;14.30;99.90;;;;;;5000825;28;20022;-72
2023/01/01 07:38:58;;;;;;;11.10;3.47;;;14.30;99.90;;;;;;4999929;28;20084;-72
2023/01/01 07:41:23;;;;;;;10.43;3.25;;;14.40;99.90;;;;;;5008296;28;20030;-73
2023/01/01 07:43:49;;;;;;;9.43;3.00;;;14.40;99.90;;;;;;5006991;28;20100;-73
2023/01/01 07:46:17;;;;;;;9.30;3.30;;;14.50;99.90;;;;;;5010028;28;20032;-72
2023/01/01 07:48:43;;;;;;;7.40;3.10;;;14.40;99.90;;;;;;5000925;28;20033;-72
2023/01/01 07:51:09;;;;;;;17.77;3.35;;;14.40;99.90;;;;;;5000184;28;20030;-72
2023/01/01 07:53:34;;;;;;;9.75;3.17;;;14.20;99.90;;;;;;5006568;28;20564;-72
2023/01/01 07:56:00;;;;;;;12.25;3.88;;;14.20;99.90;;;;;;4986245;28;20028;-72
2023/01/01 07:58:26;;;;;;;13.80;3.85;;;14.20;99.90;;;;;;5004130;28;20422;-72
2023/01/01 08:00:51;;;;;;;11.02;3.28;;;14.20;99.90;;;;;;4996515;28;20422;-72
2023/01/01 08:03:17;;;;;;;5.10;3.13;;;14.10;99.90;;;;;;5005686;28;20021;-72
2023/01/01 08:05:42;;;;;;;10.27;3.00;;;14.20;99.90;;;;;;5011083;28;20026;-72
2023/01/01 08:08:09;;;;;;;8.65;3.22;;;14.10;99.90;;;;;;5009104;28;20034;-72
2023/01/01 08:10:34;;;;;;;10.00;3.55;;;14.20;99.90;;;;;;5001298;28;20109;-72
2023/01/01 08:13:02;;;;;;;11.23;3.20;;;14.20;99.90;;;;;;5006459;28;20106;-72
2023/01/01 08:15:28;;;;;;;10.68;3.28;;;14.10;99.90;;;;;;5010036;28;20045;-72
2023/01/01 08:17:58;;;;;;;9.68;3.35;;;14.20;99.90;;;;;;4998809;28;20104;-72
2023/01/01 08:20:25;;;;;;;12.13;3.10;;;14.10;99.90;;;;;;4995571;28;20026;-72
2023/01/01 08:22:51;;;;;;;12.00;4.35;;;14.10;99.90;;;;;;5003644;28;20040;-72
2023/01/01 08:25:16;;;;;;;8.70;3.22;;;14.10;99.90;;;;;;5003593;28;20401;-72
2023/01/01 08:27:42;;;;;;;12.77;3.53;;;14.10;99.90;;;;;;4985784;28;20045;-72
2023/01/01 08:30:10;;;;;;;9.57;3.03;;;14.10;99.90;;;;;;5006933;28;20022;-72
2023/01/01 08:32:35;;;;;;;10.68;3.13;;;14.20;99.90;;;;;;4991289;28;20085;-72
2023/01/01 08:35:01;;;;;;;12.82;3.03;;;14.10;99.90;;;;;;5009961;28;20033;-72
2023/01/01 08:37:27;;;;;;;8.40;3.30;;;14.10;99.90;;;;;;5009866;28;20488;-72
2023/01/01 08:39:52;;;;;;;11.52;3.05;;;14.20;99.90;;;;;;5003787;28;20026;-72
2023/01/01 08:42:18;;;;;;;8.63;3.10;;;14.20;99.90;;;;;;5004193;28;20466;-72
2023/01/01 08:44:44;;;;;;;11.68;3.47;;;14.20;99.90;;;;;;4990580;28;20532;-73
2023/01/01 08:47:23;;;;;;;8.23;3.03;;;14.20;99.90;;;;;;5002445;28;20039;-72
2023/01/01 08:49:49;;;;;;;12.68;3.75;;;14.10;99.90;;;;;;5000572;28;20018;-72
2023/01/01 08:52:16;;;;;;;8.02;3.22;;;14.20;99.90;;;;;;5011809;28;20478;-72
2023/01/01 08:54:41;;;;;;;8.45;3.47;;;14.20;99.90;;;;;;5003348;28;20109;-72
2023/01/01 08:57:07;;;;;;;13.13;3.28;;;14.20;99.90;;;;;;5007699;28;20432;-72
2023/01/01 08:59:33;;;;;;;11.05;3.95;;;14.20;99.90;;;;;;5006204;28;20041;-72
2023/01/01 09:01:58;;;;;;;14.77;3.15;;;14.20;99.90;;;;;;5010746;28;20030;-72
2023/01/01 09:04:25;;;;;;;8.77;3.33;;;14.30;99.90;;;;;;5001282;28;20378;-72
2023/01/01 09:06:50;;;;;;;9.98;3.80;;;14.30;99.90;;;;;;5006108;28;20041;-72
2023/01/01 09:09:16;;;;;;;8.52;3.28;;;14.30;99.90;;;;;;5010344;28;20022;-72
2023/01/01 09:11:54;;;;;;;13.50;3.55;;;14.30;99.90;;;;;;4999962;28;20227;-72
2023/01/01 09:14:20;;;;;;;15.80;3.75;;;14.30;99.90;;;;;;5002609;28;20413;-72
2023/01/01 09:16:45;;;;;;;8.65;3.58;;;14.30;99.90;;;;;;4995190;28;20113;-72
2023/01/01 09:19:11;;;;;;;8.57;3.20;;;14.30;99.90;;;;;;5010761;28;20369;-72
2023/01/01 09:21:37;;;;;;;15.10;4.05;;;14.30;99.90;;;;;;5003100;28;20655;-72
2023/01/01 09:24:03;;;;;;;9.07;3.10;;;14.30;99.90;;;;;;5008007;28;20462;-72
2023/01/01 09:26:29;;;;;;;10.68;3.63;;;14.30;99.90;;;;;;5007324;28;20389;-72
2023/01/01 09:28:54;;;;;;;12.90;3.35;;;14.30;99.90;;;;;;5003128;28;20022;-72
2023/01/01 09:31:20;;;;;;;11.60;3.33;;;14.40;99.90;;;;;;5005341;28;20441;-72
2023/01/01 09:33:45;;;;;;;10.32;3.60;;;14.40;99.90;;;;;;5007761;28;20029;-73
2023/01/01 09:36:28;;;;;;;13.65;4.03;;;14.50;99.90;;;;;;5006444;28;20023;-72
2023/01/01 09:38:55;;;;;;;9.93;3.78;;;14.50;99.90;;;;;;5007032;28;20023;-72
2023/01/01 09:41:26;;;;;;;8.25;3.67;;;14.50;99.90;;;;;;5009580;28;20030;-72
2023/01/01 09:44:01;;;;;;;11.48;3.40;;;14.60;99.90;;;;;;4988508;28;20092;-73
2023/01/01 09:46:27;;;;;;;10.73;3.30;;;14.50;99.90;;;;;;4989954;28;20160;-73
2023/01/01 09:48:58;;;;;;;15.55;3.45;;;14.50;99.90;;;;;;5003133;28;20026;-73
2023/01/01 09:51:25;;;;;;;11.50;3.35;;;14.50;99.90;;;;;;5009654;28;20022;-72
2023/01/01 09:54:21;;;;;;;12.13;3.60;;;14.50;99.90;;;;;;5009723;28;20053;-73
2023/01/01 09:56:52;;;;;;;7.45;3.40;;;14.60;99.90;;;;;;4994503;28;20049;-72
2023/01/01 09:59:18;;;;;;;9.20;3.27;;;14.60;99.90;;;;;;5009977;28;20018;-72
2023/01/01 10:02:00;;;;;;;8.15;3.30;;;14.60;99.90;;;;;;5011604;28;20402;-72
2023/01/01 10:04:50;;;;;;;9.32;3.33;;;14.60;99.90;;;;;;5011946;28;20076;-72
2023/01/01 10:07:19;;;;;;;13.05;3.40;;;14.60;99.90;;;;;;4997300;28;20766;-72
2023/01/01 10:09:53;;;;;;;10.57;3.38;;;14.60;99.90;;;;;;5015978;28;20030;-72
2023/01/01 10:12:54;;;;;;;10.30;3.40;;;14.70;99.90;;;;;;4996170;28;20546;-73
2023/01/01 10:15:24;;;;;;;8.85;3.20;;;14.70;99.90;;;;;;4980666;28;20712;-72
2023/01/01 10:17:57;;;;;;;8.93;3.22;;;14.70;99.90;;;;;;5007345;28;20042;-72
2023/01/01 10:20:46;;;;;;;13.07;3.78;;;14.80;99.90;;;;;;5020027;28;20050;-72
2023/01/01 10:23:23;;;;;;;10.55;3.00;;;14.80;99.90;;;;;;5005544;28;20064;-72
2023/01/01 10:25:48;;;;;;;11.98;3.58;;;14.80;99.90;;;;;;5021226;28;20027;-72
2023/01/01 10:28:32;;;;;;;9.85;3.40;;;14.80;99.90;;;;;;4988267;28;20021;-73
2023/01/01 10:31:17;;;;;;;9.85;3.45;;;14.80;99.90;;;;;;4998499;28;20462;-72
2023/01/01 10:33:45;;;;;;;11.35;3.70;;;14.90;99.90;;;;;;5006839;28;20566;-72
2023/01/01 10:36:14;;;;;;;10.18;3.50;;;14.90;99.90;;;;;;5008818;28;20029;-72
2023/01/01 10:38:40;;;;;;;14.50;3.67;;;14.90;99.90;;;;;;5005963;28;20390;-72
2023/01/01 10:41:08;;;;;;;13.55;3.15;;;14.80;99.90;;;;;;5003831;28;20029;-73
2023/01/01 10:43:34;;;;;;;7.90;3.17;;;14.90;99.90;;;;;;5008004;28;20025;-72
2023/01/01 10:46:01;;;;;;;8.80;3.35;;;14.90;99.90;;;;;;5010219;28;20497;-72
2023/01/01 10:48:31;;;;;;;11.27;3.78;;;14.90;99.90;;;;;;5002676;28;20029;-72
2023/01/01 10:51:03;;;;;;;15.15;3.13;;;14.90;99.90;;;;;;5013574;28;20061;-72
2023/01/01 10:53:34;;;;;;;8.73;3.03;;;14.90;99.90;;;;;;5012991;28;20088;-72
2023/01/01 10:56:07;;;;;;;10.13;3.57;;;14.90;99.90;;;;;;5001265;28;20029;-72
2023/01/01 10:58:38;;;;;;;9.13;2.70;;;14.90;99.90;;;;;;5012409;28;20030;-72
2023/01/01 11:01:11;;;;;;;11.48;4.00;;;15.00;99.90;;;;;;5003621;28;20030;-73
2023/01/01 11:04:09;;;;;;;9.93;3.25;;;15.10;99.90;;;;;;5010546;28;20095;-72
2023/01/01 11:06:38;;;;;;;6.72;3.05;;;15.00;99.90;;;;;;5005748;28;20022;-72
2023/01/01 11:09:25;;;;;;;7.82;2.95;;;15.10;99.90;;;;;;5003952;28;20104;-72
2023/01/01 11:12:02;;;;;;;10.40;3.20;;;15.10;99.90;;;;;;5009774;28;20045;-72
2023/01/01 11:14:37;;;;;;;10.18;3.38;;;15.20;99.90;;;;;;5007879;28;20034;-72
2023/01/01 11:17:03;;;;;;;6.90;3.38;;;15.20;99.90;;;;;;5018166;28;20386;-72
2023/01/01 11:19:38;;;;;;;13.10;3.38;;;15.30;99.90;;;;;;5001386;28;20022;-72
2023/01/01 11:22:04;;;;;;;9.32;3.45;;;15.30;99.90;;;;;;5005533;28;20096;-72
2023/01/01 11:24:34;;;;;;;9.38;3.53;;;15.30;99.90;;;;;;5005256;28;20077;-73
2023/01/01 11:27:19;;;;;;;9.50;3.00;;;15.40;99.90;;;;;;5006495;28;20565;-72
2023/01/01 11:29:45;;;;;;;13.50;3.20;;;15.40;99.90;;;;;;5023039;28;20022;-71
2023/01/01 11:32:18;;;;;;;17.20;3.60;;;15.40;99.90;;;;;;5004771;28;20029;-72
2023/01/01 11:34:43;;;;;;;;;;;15.40;99.90;;;;;;5006282;28;20018;-73
2023/01/01 11:37:31;;;;;;;8.52;3.13;;;15.50;99.90;;;;;;5011951;28;19905;-72
2023/01/01 11:39:58;;;;;;;7.47;3.08;;;15.50;99.90;;;;;;4995046;28;20455;-72
2023/01/01 11:42:33;;;;;;;12.07;3.38;;;15.40;99.90;;;;;;5010838;28;20034;-73
2023/01/01 11:45:10;;;;;;;8.15;3.22;;;15.50;99.90;;;;;;5014467;28;20363;-72
2023/01/01 11:47:38;;;;;;;10.50;3.30;;;15.50;99.90;;;;;;5005284;28;20037;-72
2023/01/01 11:50:13;;;;;;;8.13;2.78;;;15.50;99.90;;;;;;5025214;28;20440;-72
2023/01/01 11:52:48;;;;;;;13.68;3.47;;;15.50;99.90;;;;;;5009915;28;20026;-73
2023/01/01 11:55:19;;;;;;;9.77;3.22;;;15.50;99.90;;;;;;4999759;28;20536;-73
2023/01/01 11:58:00;;;;;;;9.68;3.35;;;15.50;99.90;;;;;;5007648;28;20037;-73
2023/01/01 12:00:29;;;;;;;10.95;3.45;;;15.50;99.90;;;;;;5010563;28;20523;-73
2023/01/01 12:03:15;;;;;;;11.60;3.60;;;15.50;99.90;;;;;;5012003;28;20036;-73
2023/01/01 12:05:48;;;;;;;11.05;3.63;;;15.50;99.90;;;;;;5010031;28;20101;-72
2023/01/01 12:08:18;;;;;;;;;;;15.50;99.90;;;;;;4998415;28;20037;-73
2023/01/01 12:10:50;;;;;;;12.35;2.95;;;15.50;99.90;;;;;;5012082;28;20399;-72
2023/01/01 12:13:24;;;;;;;10.48;3.03;;;15.60;99.90;;;;;;5012771;28;20053;-72
2023/01/01 12:16:26;;;;;;;12.73;3.75;;;15.50;99.90;;;;;;5003008;28;20152;-72
2023/01/01 12:18:59;;;;;;;10.32;3.33;;;15.50;99.90;;;;;;4980343;28;20134;-73
2023/01/01 12:21:27;;;;;;;9.48;3.22;;;15.50;99.90;;;;;;5002777;28;20048;-73
2023/01/01 12:23:53;;;;;;;12.15;3.42;;;15.50;99.90;;;;;;5011511;28;20061;-73
2023/01/01 12:26:39;;;;;;;10.30;3.28;;;15.40;99.90;;;;;;5000646;28;20096;-72
2023/01/01 12:29:35;;;;;;;8.55;2.90;;;15.40;99.90;;;;;;4996402;28;20041;-72
2023/01/01 12:32:04;;;;;;;9.95;3.17;;;15.50;99.90;;;;;;5010854;28;20038;-72
2023/01/01 12:35:12;;;;;;;9.48;3.00;;;15.50;99.90;;;;;;5013348;28;20029;-72
2023/01/01 12:38:04;;;;;;;13.68;3.13;;;15.50;99.90;;;;;;5007749;28;20037;-73
2023/01/01 12:40:50;;;;;;;9.88;2.88;;;15.40;99.90;;;;;;5009179;28;20025;-73
2023/01/01 12:43:49;;;;;;;9.18;3.55;;;15.40;99.90;;;;;;5011066;28;20129;-72
2023/01/01 12:46:21;;;;;;;5.32;2.65;;;15.30;99.90;;;;;;5008030;28;20050;-73
2023/01/01 12:49:22;;;;;;;13.57;3.23;;;15.40;99.90;;;;;;5008349;28;20037;-73
2023/01/01 12:52:01;;;;;;;13.55;3.35;;;15.40;99.90;;;;;;5009488;28;20026;-72
2023/01/01 12:54:29;;;;;;;13.60;3.33;;;15.40;99.90;;;;;;5002838;28;20101;-72
2023/01/01 12:57:23;;;;;;;10.85;2.85;;;15.40;99.90;;;;;;5007805;28;20030;-74
2023/01/01 12:59:51;;;;;;;10.68;2.80;;;15.40;99.90;;;;;;4991645;28;20057;-73
2023/01/01 13:02:28;;;;;;;14.20;3.20;;;15.40;99.90;;;;;;5010409;28;20089;-73
2023/01/01 13:05:00;;;;;;;9.65;3.10;;;15.50;99.90;;;;;;5010791;28;20034;-73